Time;durP1;ratioP1;P1;durP2;ratioP2;P2;SDS_P1;SDS_P2;PMS_P1;PMS_P2;Temp;Humidity;BMP_temperature;BMP_pressure;BME280_temperature;BME280_humidity;BME280_pressure;Samples;Min_cycle;Max_cycle;Signal;HPM_P1;HPM_P2
2023/06/09 00:02:23;;;;;;;2.30;2.10;;;;;;;23.60;50.88;101423.22;5046613;28;20025;-54
2023/06/09 00:04:48;;;;;;;2.72;2.42;;;;;;;23.58;50.35;101415.22;5046477;28;20427;-54
2023/06/09 00:07:15;;;;;;;2.50;2.30;;;;;;;23.57;50.80;101421.72;5046947;28;20116;-54
2023/06/09 00:09:42;;;;;;;3.25;2.35;;;;;;;23.57;50.79;101427.16;5046846;28;20064;-55
2023/06/09 00:12:07;;;;;;;2.67;2.30;;;;;;;23.56;50.47;101421.88;5050434;28;20033;-55
2023/06/09 00:14:33;;;;;;;3.17;2.58;;;;;;;23.56;50.36;101424.59;5045866;28;20399;-55
2023/06/09 00:16:59;;;;;;;2.50;2.30;;;;;;;23.57;50.90;101415.41;5046261;28;20025;-54
2023/06/09 00:19:27;;;;;;;2.10;2.00;;;;;;;23.56;50.38;101419.16;5046550;28;20087;-54
2023/06/09 00:21:53;;;;;;;3.08;2.42;;;;;;;23.55;50.40;101423.75;5052225;28;20470;-54
2023/06/09 00:24:20;;;;;;;2.50;2.30;;;;;;;23.55;50.57;101417.44;5045344;28;20021;-54
2023/06/09 00:26:47;;;;;;;3.70;2.20;;;;;;;23.55;50.84;101422.88;5049578;28;20087;-54
2023/06/09 00:29:12;;;;;;;2.80;2.60;;;;;;;23.55;50.61;101414.72;5046658;28;20041;-55
2023/06/09 00:31:40;;;;;;;2.05;1.95;;;;;;;23.55;50.66;101420.16;5043992;28;20132;-54
2023/06/09 00:34:05;;;;;;;3.15;1.95;;;;;;;23.55;50.70;101420.16;5028520;28;20475;-54
2023/06/09 00:36:31;;;;;;;2.75;2.22;;;;;;;23.54;50.31;101411.16;5046565;28;20037;-55
2023/06/09 00:38:56;;;;;;;2.42;2.20;;;;;;;23.54;50.81;101413.88;5046808;28;20037;-54
2023/06/09 00:41:22;;;;;;;2.47;2.28;;;;;;;23.54;50.46;101411.16;5046076;28;20203;-55
2023/06/09 00:43:50;;;;;;;2.80;1.90;;;;;;;23.55;50.47;101412.00;5046110;28;20032;-54
2023/06/09 00:46:16;;;;;;;2.45;2.20;;;;;;;23.53;50.42;101414.03;5045292;28;20056;-55
2023/06/09 00:48:41;;;;;;;3.47;2.40;;;;;;;23.54;50.33;101415.75;5046669;28;20068;-54
2023/06/09 00:51:07;;;;;;;2.42;2.22;;;;;;;23.53;50.83;101411.31;5045229;28;20061;-55
2023/06/09 00:53:33;;;;;;;2.83;2.58;;;;;;;23.52;50.35;101415.91;5041724;28;20040;-54
2023/06/09 00:55:58;;;;;;;2.33;2.13;;;;;;;23.52;50.48;101413.19;5046066;28;20029;-54
2023/06/09 00:58:24;;;;;;;2.40;2.20;;;;;;;23.53;50.38;101414.03;5046302;28;20128;-54
2023/06/09 01:00:51;;;;;;;2.63;2.10;;;;;;;23.51;50.62;101408.78;5046700;28;20040;-55
2023/06/09 01:03:17;;;;;;;2.58;2.28;;;;;;;23.51;50.54;101410.66;5045993;28;20041;-54
2023/06/09 01:05:48;;;;;;;2.15;2.05;;;;;;;23.51;50.78;101407.94;5046080;28;20042;-54
2023/06/09 01:08:55;;;;;;;2.65;2.45;;;;;;;23.53;50.56;101404.03;5049556;28;20037;-54
2023/06/09 01:11:26;;;;;;;2.65;2.10;;;;;;;23.51;50.15;101408.78;5048109;28;20059;-54
2023/06/09 01:14:17;;;;;;;2.20;2.00;;;;;;;23.54;50.60;101410.31;5046659;28;20033;-54
2023/06/09 01:16:53;;;;;;;2.53;2.33;;;;;;;23.52;50.38;101402.34;5053004;28;20123;-54
2023/06/09 01:19:32;;;;;;;3.30;2.10;;;;;;;23.50;50.31;101403.53;5050090;28;20029;-56
2023/06/09 01:22:25;;;;;;;2.67;2.25;;;;;;;23.52;50.72;101396.91;5088573;28;20033;-55
2023/06/09 01:25:04;;;;;;;2.47;2.28;;;;;;;23.50;50.61;101398.09;5052597;28;20119;-54
2023/06/09 01:27:33;;;;;;;2.17;1.98;;;;;;;23.48;50.49;101400.97;5046129;28;20069;-54
2023/06/09 01:30:00;;;;;;;2.10;2.00;;;;;;;23.48;50.56;101400.97;5056372;28;20134;-54
2023/06/09 01:32:26;;;;;;;2.78;2.35;;;;;;;23.47;50.22;101399.25;5049831;28;20439;-55
2023/06/09 01:34:53;;;;;;;2.47;2.08;;;;;;;23.47;50.10;101403.84;5048736;28;20052;-54
2023/06/09 01:37:19;;;;;;;4.43;2.20;;;;;;;23.47;50.32;101396.53;5049714;28;20482;-55
2023/06/09 01:39:46;;;;;;;2.88;2.03;;;;;;;23.46;50.09;101388.59;5049694;28;20035;-55
2023/06/09 01:42:12;;;;;;;2.55;2.00;;;;;;;23.46;50.45;101391.31;5049585;28;20131;-54
2023/06/09 01:44:37;;;;;;;3.63;2.28;;;;;;;23.45;50.15;101390.44;5047366;28;20120;-54
2023/06/09 01:47:03;;;;;;;2.53;2.33;;;;;;;23.46;50.18;101399.47;5049008;28;20037;-55
2023/06/09 01:49:41;;;;;;;2.78;2.13;;;;;;;23.45;50.60;101392.31;5046218;28;20437;-53
2023/06/09 01:52:12;;;;;;;2.70;2.25;;;;;;;23.43;50.54;101396.03;5049320;28;20048;-54
2023/06/09 01:54:41;;;;;;;1.97;1.80;;;;;;;23.43;50.54;101393.31;5047021;28;20033;-54
2023/06/09 01:57:14;;;;;;;3.55;2.38;;;;;;;23.43;50.33;101387.88;5048406;28;20041;-54
2023/06/09 01:59:55;;;;;;;1.95;1.83;;;;;;;23.46;50.48;101391.31;5044227;28;20032;-54
2023/06/09 02:02:24;;;;;;;2.45;2.25;;;;;;;23.43;50.42;101398.75;5047938;28;20029;-55
2023/06/09 02:04:53;;;;;;;2.60;2.40;;;;;;;23.41;50.32;101398.06;5048651;28;20360;-54
2023/06/09 02:07:19;;;;;;;2.58;2.30;;;;;;;23.41;50.41;101389.91;5048671;28;20109;-54
2023/06/09 02:09:46;;;;;;;2.08;1.88;;;;;;;23.41;50.00;101389.06;5048849;28;20041;-54
2023/06/09 02:12:11;;;;;;;2.33;1.92;;;;;;;23.42;49.92;101382.63;5047811;28;20452;-54
2023/06/09 02:14:39;;;;;;;2.50;1.92;;;;;;;23.40;50.45;101371.94;5047992;28;20026;-55
2023/06/09 02:17:04;;;;;;;2.75;2.20;;;;;;;23.40;50.13;101377.38;5048301;28;20431;-54
2023/06/09 02:19:30;;;;;;;2.25;2.05;;;;;;;23.40;49.90;101371.09;5048310;28;20128;-54
2023/06/09 02:21:57;;;;;;;2.30;2.10;;;;;;;23.38;50.02;101373.97;5051885;28;20032;-55
2023/06/09 02:24:27;;;;;;;2.50;2.28;;;;;;;23.38;50.22;101373.97;5051685;28;20112;-54
2023/06/09 02:26:53;;;;;;;2.90;2.10;;;;;;;23.39;49.82;101372.94;5049183;28;20029;-54
2023/06/09 02:29:18;;;;;;;2.22;2.03;;;;;;;23.39;50.43;101375.66;5048327;28;20379;-55
2023/06/09 02:31:44;;;;;;;2.13;1.90;;;;;;;23.39;50.14;101374.81;5054908;28;20380;-55
2023/06/09 02:34:10;;;;;;;2.35;2.03;;;;;;;23.38;50.09;101367.66;5048699;28;20124;-54
2023/06/09 02:36:37;;;;;;;2.55;2.10;;;;;;;23.37;49.78;101366.81;5048838;28;20043;-55
2023/06/09 02:39:03;;;;;;;2.38;2.17;;;;;;;23.37;49.81;101365.97;5047603;28;20059;-54
2023/06/09 02:41:28;;;;;;;2.33;1.98;;;;;;;23.37;50.26;101366.81;5047887;28;20056;-55
2023/06/09 02:43:54;;;;;;;2.15;1.95;;;;;;;23.37;49.91;101365.97;5048172;28;20059;-54
2023/06/09 02:46:22;;;;;;;2.00;1.90;;;;;;;23.36;49.93;101367.84;5049178;28;20101;-54
2023/06/09 02:48:48;;;;;;;2.20;2.00;;;;;;;23.35;50.26;101371.56;5047886;28;20109;-54
2023/06/09 02:51:13;;;;;;;2.10;1.90;;;;;;;23.35;50.05;101363.44;5047601;28;20084;-54
2023/06/09 02:53:39;;;;;;;2.17;1.85;;;;;;;23.36;50.32;101369.69;5048080;28;20128;-55
2023/06/09 02:56:04;;;;;;;2.65;2.25;;;;;;;23.35;50.28;101363.44;5048425;28;20066;-55
2023/06/09 02:58:30;;;;;;;2.30;2.10;;;;;;;23.34;50.10;101369.91;5046979;28;20033;-54
2023/06/09 03:00:55;;;;;;;1.90;1.80;;;;;;;23.33;49.74;101362.75;5056196;28;20047;-54
2023/06/09 03:03:21;;;;;;;2.17;1.98;;;;;;;23.33;49.73;101370.91;5048000;28;20032;-54
2023/06/09 03:05:47;;;;;;;2.35;2.00;;;;;;;23.33;49.70;101376.34;5047982;28;20438;-54
2023/06/09 03:08:12;;;;;;;2.35;2.03;;;;;;;23.32;50.11;101369.22;5046791;28;20033;-55
2023/06/09 03:10:38;;;;;;;2.33;2.13;;;;;;;23.34;49.88;101371.75;5047502;28;20033;-55
2023/06/09 03:13:03;;;;;;;2.08;1.90;;;;;;;23.32;49.94;101363.78;5047410;28;20037;-54
2023/06/09 03:15:28;;;;;;;2.25;2.03;;;;;;;23.33;50.01;101370.06;5046421;28;20040;-54
2023/06/09 03:17:54;;;;;;;1.92;1.83;;;;;;;23.32;50.06;101380.09;5048575;28;20040;-54
2023/06/09 03:20:19;;;;;;;2.45;2.15;;;;;;;23.31;49.81;101375.66;5045619;28;20029;-54
2023/06/09 03:22:45;;;;;;;2.10;1.80;;;;;;;23.31;49.96;101372.09;5051611;28;20033;-55
2023/06/09 03:25:12;;;;;;;2.60;2.17;;;;;;;23.30;49.67;101375.81;5049713;28;20032;-55
2023/06/09 03:27:37;;;;;;;3.75;2.17;;;;;;;23.30;50.07;101376.66;5046485;28;20041;-55
2023/06/09 03:30:05;;;;;;;2.30;2.03;;;;;;;23.30;49.57;101376.66;5047216;28;20499;-54
2023/06/09 03:32:31;;;;;;;2.58;2.17;;;;;;;23.29;49.48;101374.97;5047531;28;20064;-55
2023/06/09 03:34:56;;;;;;;2.22;2.03;;;;;;;23.30;49.54;101375.81;5046478;28;20071;-55
2023/06/09 03:37:21;;;;;;;3.40;2.00;;;;;;;23.29;49.51;101379.56;5047052;28;20064;-55
2023/06/09 03:39:47;;;;;;;2.53;2.30;;;;;;;23.28;49.72;101378.69;5047175;28;20064;-55
2023/06/09 03:42:12;;;;;;;1.90;1.80;;;;;;;23.29;49.49;101372.25;5050640;28;20055;-54
2023/06/09 03:44:37;;;;;;;2.03;1.90;;;;;;;23.28;50.00;101381.41;5046591;28;20093;-54
2023/06/09 03:47:03;;;;;;;2.13;1.90;;;;;;;23.28;49.84;101383.28;5046400;28;20082;-54
2023/06/09 03:49:28;;;;;;;2.95;2.30;;;;;;;23.28;49.91;101386.84;5046624;28;20467;-54
2023/06/09 03:51:53;;;;;;;1.95;1.77;;;;;;;23.28;49.58;101394.16;5047221;28;20510;-54
2023/06/09 03:54:19;;;;;;;2.65;2.10;;;;;;;23.27;49.67;101404.19;5045973;28;20033;-54
2023/06/09 03:56:45;;;;;;;2.83;2.53;;;;;;;23.26;49.50;101394.31;5050861;28;20102;-54
2023/06/09 03:59:10;;;;;;;2.47;2.20;;;;;;;23.25;49.31;101402.63;5049879;28;20025;-54
2023/06/09 04:01:36;;;;;;;2.95;2.30;;;;;;;23.26;49.44;101391.59;5047840;28;20040;-54
2023/06/09 04:04:01;;;;;;;2.95;2.15;;;;;;;23.24;49.84;101390.94;5045867;28;20117;-54
2023/06/09 04:06:28;;;;;;;2.20;2.00;;;;;;;23.25;49.51;101389.06;5078508;28;20033;-54
2023/06/09 04:08:53;;;;;;;2.40;2.13;;;;;;;23.24;49.37;101396.34;5046405;28;20038;-54
2023/06/09 04:11:19;;;;;;;2.28;2.05;;;;;;;23.24;49.63;101388.22;5046065;28;20033;-54
2023/06/09 04:13:44;;;;;;;2.17;1.98;;;;;;;23.23;49.33;101384.66;5046054;28;20557;-54
2023/06/09 04:16:10;;;;;;;2.75;2.25;;;;;;;23.23;49.54;101397.41;5045137;28;20039;-54
2023/06/09 04:18:35;;;;;;;2.50;1.88;;;;;;;23.23;49.48;101397.41;5053979;28;20027;-54
2023/06/09 04:21:01;;;;;;;2.30;1.88;;;;;;;23.23;49.38;101389.25;5046439;28;20034;-54
2023/06/09 04:23:29;;;;;;;2.22;2.03;;;;;;;23.22;49.48;101391.09;5045932;28;20032;-54
2023/06/09 04:25:55;;;;;;;2.15;1.83;;;;;;;23.22;49.52;101399.25;5047624;28;20462;-54
2023/06/09 04:28:21;;;;;;;2.53;2.25;;;;;;;23.22;49.75;101401.13;5045878;28;20060;-54
2023/06/09 04:30:47;;;;;;;3.13;1.90;;;;;;;23.21;49.44;101404.88;5045109;28;20037;-54
2023/06/09 04:33:13;;;;;;;3.00;2.38;;;;;;;23.21;49.19;101404.88;5046383;28;20033;-54
2023/06/09 04:35:40;;;;;;;2.00;1.80;;;;;;;23.20;48.97;101404.00;5046964;28;20035;-54
2023/06/09 04:38:07;;;;;;;1.83;1.73;;;;;;;23.21;49.20;101399.44;5043301;28;20060;-54
2023/06/09 04:40:32;;;;;;;2.40;2.20;;;;;;;23.20;49.32;101397.72;5046035;28;20041;-54
2023/06/09 04:43:01;;;;;;;2.25;1.92;;;;;;;23.21;49.61;101407.59;5046245;28;20044;-54
2023/06/09 04:45:33;;;;;;;2.08;1.88;;;;;;;23.20;49.10;101403.16;5046992;28;20028;-54
2023/06/09 04:48:02;;;;;;;3.75;1.98;;;;;;;23.19;49.20;101402.31;5045608;28;20037;-53
2023/06/09 04:50:35;;;;;;;2.58;2.00;;;;;;;23.19;49.33;101404.19;5048989;28;20073;-54
2023/06/09 04:53:03;;;;;;;2.10;1.90;;;;;;;23.19;49.05;101404.19;5051141;28;20040;-54
2023/06/09 04:55:30;;;;;;;2.38;2.05;;;;;;;23.20;49.41;101408.59;5050427;28;20075;-54
2023/06/09 04:57:56;;;;;;;2.55;2.20;;;;;;;23.18;49.43;101405.19;5049781;28;20064;-54
2023/06/09 05:00:28;;;;;;;2.22;1.95;;;;;;;23.19;49.22;101406.91;5051652;28;20116;-54
2023/06/09 05:02:57;;;;;;;2.55;1.60;;;;;;;23.18;48.94;101413.34;5050797;28;20026;-54
2023/06/09 05:05:23;;;;;;;2.63;1.70;;;;;;;23.18;49.05;101410.63;5050416;28;20079;-54
2023/06/09 05:07:48;;;;;;;1.92;1.80;;;;;;;23.18;49.22;101410.63;5049449;28;20033;-54
2023/06/09 05:10:13;;;;;;;2.22;1.98;;;;;;;23.18;49.17;101410.63;5049628;28;20383;-54
2023/06/09 05:12:40;;;;;;;2.15;1.85;;;;;;;23.18;49.30;101407.91;5049701;28;20434;-54
2023/06/09 05:15:06;;;;;;;2.08;1.70;;;;;;;23.17;49.05;101406.19;5059150;28;20029;-54
2023/06/09 05:17:41;;;;;;;3.03;2.05;;;;;;;23.16;49.19;101402.63;5048982;28;20037;-54
2023/06/09 05:20:08;;;;;;;3.08;2.30;;;;;;;23.16;49.47;101413.50;5049369;28;20021;-55
2023/06/09 05:22:35;;;;;;;2.30;2.03;;;;;;;23.16;49.56;101410.78;5054474;28;20044;-54
2023/06/09 05:25:01;;;;;;;3.05;1.92;;;;;;;23.17;49.55;101411.63;5051186;28;20017;-54
2023/06/09 05:27:27;;;;;;;2.20;1.60;;;;;;;23.15;49.37;101411.81;5049521;28;20042;-54
2023/06/09 05:29:52;;;;;;;2.25;2.05;;;;;;;23.16;49.54;101420.81;5050115;28;20032;-54
2023/06/09 05:32:18;;;;;;;2.22;1.95;;;;;;;23.16;49.17;101415.38;5049061;28;20029;-54
2023/06/09 05:34:44;;;;;;;2.47;1.95;;;;;;;23.16;49.32;101412.66;5050796;28;20024;-54
2023/06/09 05:37:12;;;;;;;2.03;1.88;;;;;;;23.15;49.01;101416.38;5049657;28;20021;-54
2023/06/09 05:39:38;;;;;;;2.03;1.83;;;;;;;23.16;49.60;101423.53;5050331;28;20482;-54
2023/06/09 05:42:03;;;;;;;2.08;1.90;;;;;;;23.15;49.10;101421.81;5049104;28;20029;-54
2023/06/09 05:44:29;;;;;;;2.55;2.35;;;;;;;23.16;49.44;101420.81;5049508;28;20475;-54
2023/06/09 05:46:55;;;;;;;2.47;2.03;;;;;;;23.15;49.19;101419.97;5049322;28;20030;-54
2023/06/09 05:49:20;;;;;;;2.10;1.90;;;;;;;23.14;49.17;101420.97;5056662;28;20401;-54
2023/06/09 05:51:45;;;;;;;2.20;2.00;;;;;;;23.15;49.46;101410.94;5048367;28;20044;-54
2023/06/09 05:54:11;;;;;;;2.03;1.75;;;;;;;23.15;49.32;101416.38;5048820;28;20060;-54
2023/06/09 05:56:38;;;;;;;2.10;1.90;;;;;;;23.15;49.46;101413.66;5051354;28;20125;-54
2023/06/09 05:59:03;;;;;;;2.38;1.90;;;;;;;23.14;49.08;101414.69;5051697;28;20037;-54
2023/06/09 06:01:32;;;;;;;2.35;2.15;;;;;;;23.14;49.41;101415.53;5047335;28;20040;-54
2023/06/09 06:03:58;;;;;;;2.40;1.80;;;;;;;23.13;49.50;101416.56;5048767;28;20044;-54
2023/06/09 06:06:24;;;;;;;2.10;1.67;;;;;;;23.14;49.45;101415.53;5048682;28;20028;-54
2023/06/09 06:08:49;;;;;;;2.05;1.85;;;;;;;23.14;49.05;101414.69;5050204;28;20040;-54
2023/06/09 06:11:15;;;;;;;2.05;1.85;;;;;;;23.14;49.59;101414.69;5048148;28;20048;-54
2023/06/09 06:13:40;;;;;;;2.03;1.90;;;;;;;23.15;49.13;101410.94;5048153;28;20029;-55
2023/06/09 06:16:05;;;;;;;1.77;1.67;;;;;;;23.14;49.11;101414.69;5048596;28;20029;-54
2023/06/09 06:18:31;;;;;;;1.65;1.52;;;;;;;23.14;49.25;101412.81;5049232;28;20552;-54
2023/06/09 06:20:56;;;;;;;2.15;1.95;;;;;;;23.13;49.07;101411.13;5051904;28;20445;-55
2023/06/09 06:23:22;;;;;;;1.85;1.73;;;;;;;23.14;49.49;101406.53;5057196;28;20049;-54
2023/06/09 06:25:47;;;;;;;1.80;1.70;;;;;;;23.14;49.18;101409.25;5051525;28;20078;-55
2023/06/09 06:28:13;;;;;;;2.40;2.10;;;;;;;23.13;49.20;101415.69;5048637;28;20041;-55
2023/06/09 06:30:39;;;;;;;2.10;1.90;;;;;;;23.14;49.27;101411.97;5046666;28;20091;-55
2023/06/09 06:33:07;;;;;;;1.92;1.83;;;;;;;23.15;49.16;101419.09;5049754;28;20116;-55
2023/06/09 06:35:33;;;;;;;1.77;1.67;;;;;;;23.14;49.66;101414.69;5048140;28;20454;-55
2023/06/09 06:37:58;;;;;;;1.77;1.67;;;;;;;23.14;49.17;101420.13;5048772;28;20111;-55
2023/06/09 06:40:24;;;;;;;2.35;2.10;;;;;;;23.14;49.57;101414.69;5047611;28;20484;-55
2023/06/09 06:42:51;;;;;;;1.92;1.77;;;;;;;23.14;49.60;101420.13;5047785;28;20545;-55
2023/06/09 06:45:17;;;;;;;2.03;1.83;;;;;;;23.14;49.48;101415.53;5048011;28;20037;-55
2023/06/09 06:47:43;;;;;;;1.88;1.70;;;;;;;23.15;49.56;101416.38;5048280;28;20087;-55
2023/06/09 06:50:09;;;;;;;2.13;1.92;;;;;;;23.14;49.48;101414.69;5047218;28;20060;-55
2023/06/09 06:52:35;;;;;;;2.05;1.83;;;;;;;23.14;49.15;101420.13;5047867;28;20112;-55
2023/06/09 06:55:00;;;;;;;1.70;1.58;;;;;;;23.14;49.11;101420.97;5048472;28;20140;-55
2023/06/09 06:57:26;;;;;;;2.45;2.03;;;;;;;23.14;49.51;101409.25;5048632;28;20034;-55
2023/06/09 06:59:52;;;;;;;1.85;1.73;;;;;;;23.13;49.39;101408.41;5045618;28;20531;-55
2023/06/09 07:02:17;;;;;;;2.20;1.98;;;;;;;23.14;49.49;101409.25;5047676;28;20738;-55
2023/06/09 07:04:43;;;;;;;2.00;1.70;;;;;;;23.14;49.09;101409.25;5050142;28;20479;-55
2023/06/09 07:07:09;;;;;;;2.65;1.98;;;;;;;23.14;49.69;101410.09;5049148;28;20037;-55
2023/06/09 07:09:35;;;;;;;2.00;1.90;;;;;;;23.14;49.25;101411.97;5047371;28;20033;-55
2023/06/09 07:12:00;;;;;;;2.28;2.05;;;;;;;23.15;49.53;101421.81;5047042;28;20033;-55
2023/06/09 07:14:27;;;;;;;1.92;1.70;;;;;;;23.15;49.63;101427.25;5047535;28;20036;-55
2023/06/09 07:16:52;;;;;;;1.90;1.70;;;;;;;23.14;49.48;101414.69;5046437;28;20033;-56
2023/06/09 07:19:18;;;;;;;2.40;1.75;;;;;;;23.15;49.38;101419.09;5046779;28;20082;-55
2023/06/09 07:21:43;;;;;;;2.00;1.88;;;;;;;23.13;49.72;101419.28;5053293;28;20360;-55
2023/06/09 07:24:09;;;;;;;2.00;1.80;;;;;;;23.15;49.18;101417.25;5048864;28;20033;-56
2023/06/09 07:26:34;;;;;;;2.50;1.98;;;;;;;23.14;49.35;101414.69;5047611;28;20376;-55
2023/06/09 07:28:59;;;;;;;1.88;1.77;;;;;;;23.15;49.02;101421.81;5047963;28;20040;-55
2023/06/09 07:31:25;;;;;;;2.08;1.88;;;;;;;23.15;49.18;101427.25;5047241;28;20111;-55
2023/06/09 07:33:50;;;;;;;2.00;1.70;;;;;;;23.14;49.54;101420.97;5047320;28;20120;-55
2023/06/09 07:36:16;;;;;;;2.13;1.83;;;;;;;23.15;49.47;101419.97;5046511;28;20464;-55
2023/06/09 07:38:46;;;;;;;1.90;1.70;;;;;;;23.15;49.77;101421.81;5047091;28;20033;-55
2023/06/09 07:41:12;;;;;;;1.98;1.88;;;;;;;23.15;49.68;101419.97;5054287;28;20025;-55
2023/06/09 07:43:37;;;;;;;2.30;1.80;;;;;;;23.15;49.38;101425.41;5046654;28;20498;-55
2023/06/09 07:46:03;;;;;;;2.22;2.03;;;;;;;23.16;49.82;101423.53;5047696;28;20033;-55
2023/06/09 07:48:28;;;;;;;1.85;1.70;;;;;;;23.16;49.79;101418.09;5047638;28;20535;-55
2023/06/09 07:50:53;;;;;;;1.80;1.70;;;;;;;23.16;49.34;101426.25;5047623;28;20049;-55
2023/06/09 07:53:21;;;;;;;2.22;1.90;;;;;;;23.16;49.24;101413.50;5046890;28;20249;-55
2023/06/09 07:55:46;;;;;;;2.47;1.92;;;;;;;23.16;49.68;101418.09;5046952;28;20471;-55
2023/06/09 07:58:12;;;;;;;1.70;1.60;;;;;;;23.16;49.23;101418.94;5046935;28;20078;-55
2023/06/09 08:00:37;;;;;;;2.20;2.00;;;;;;;23.16;49.74;101412.66;5044299;28;20032;-55
2023/06/09 08:03:03;;;;;;;2.70;1.90;;;;;;;23.16;49.71;101418.09;5047997;28;20075;-55
2023/06/09 08:05:32;;;;;;;1.63;1.52;;;;;;;23.16;49.82;101412.66;5051696;28;20020;-55
2023/06/09 08:07:57;;;;;;;1.98;1.77;;;;;;;23.17;49.50;101408.91;5045827;28;20115;-55
2023/06/09 08:10:23;;;;;;;2.63;1.95;;;;;;;23.17;49.73;101411.63;5044615;28;20059;-55
2023/06/09 08:12:52;;;;;;;3.03;1.92;;;;;;;23.16;49.53;101401.78;5046145;28;20040;-55
2023/06/09 08:15:18;;;;;;;2.60;1.80;;;;;;;23.18;49.90;101405.19;5046190;28;20056;-55
2023/06/09 08:17:43;;;;;;;2.20;2.00;;;;;;;23.18;49.53;101408.75;5046552;28;20433;-55
2023/06/09 08:20:09;;;;;;;2.03;1.70;;;;;;;23.18;49.82;101405.19;5045593;28;20056;-55
2023/06/09 08:22:35;;;;;;;2.20;2.00;;;;;;;23.18;49.88;101399.75;5044958;28;20033;-55
2023/06/09 08:25:00;;;;;;;1.98;1.55;;;;;;;23.18;49.46;101405.19;5048420;28;20494;-55
2023/06/09 08:27:26;;;;;;;2.65;1.90;;;;;;;23.19;49.40;101402.31;5047436;28;20107;-55
2023/06/09 08:29:51;;;;;;;2.50;1.92;;;;;;;23.19;49.64;101406.91;5045418;28;20533;-55
2023/06/09 08:32:16;;;;;;;1.75;1.65;;;;;;;23.19;49.32;101393.31;5046032;28;20037;-55
2023/06/09 08:34:42;;;;;;;1.90;1.70;;;;;;;23.19;49.69;101404.19;5046076;28;20026;-55
2023/06/09 08:37:08;;;;;;;2.42;2.05;;;;;;;23.19;49.92;101402.31;5050467;28;20113;-56
2023/06/09 08:39:34;;;;;;;1.60;1.50;;;;;;;23.20;49.37;101400.44;5045034;28;20391;-55
2023/06/09 08:42:03;;;;;;;2.08;1.77;;;;;;;23.20;49.90;101400.44;5045906;28;20480;-55
2023/06/09 08:44:34;;;;;;;2.20;1.60;;;;;;;23.20;49.63;101400.44;5046701;28;20119;-55
2023/06/09 08:47:01;;;;;;;;;;;;;;;23.32;49.52;101401.81;5047469;28;20459;-55
2023/06/09 08:49:27;;;;;;;2.10;1.80;;;;;;;23.23;49.46;101405.53;5045587;28;19916;-55
2023/06/09 08:51:52;;;;;;;2.20;1.83;;;;;;;23.22;49.62;101403.84;5045601;28;20055;-55
2023/06/09 08:54:18;;;;;;;1.52;1.42;;;;;;;23.21;49.29;101400.28;5046111;28;20044;-55
2023/06/09 08:56:44;;;;;;;2.03;1.80;;;;;;;23.22;49.73;101398.41;5046265;28;20029;-55
2023/06/09 08:59:11;;;;;;;3.67;1.80;;;;;;;23.22;49.51;101401.13;5047205;28;20040;-55
2023/06/09 09:01:38;;;;;;;1.88;1.55;;;;;;;23.22;49.95;101401.13;5049215;28;20028;-55
2023/06/09 09:04:03;;;;;;;1.95;1.65;;;;;;;23.22;49.50;101401.13;5046334;28;20434;-55
2023/06/09 09:06:29;;;;;;;1.92;1.50;;;;;;;23.22;49.82;101396.53;5045013;28;20029;-55
2023/06/09 09:08:54;;;;;;;1.90;1.80;;;;;;;23.22;49.61;101388.38;5045261;28;20037;-56
2023/06/09 09:11:19;;;;;;;2.17;1.98;;;;;;;23.23;49.51;101397.41;5060974;28;20547;-56
2023/06/09 09:13:48;;;;;;;2.22;2.03;;;;;;;23.24;49.75;101393.66;5046507;28;20040;-55
2023/06/09 09:16:14;;;;;;;2.22;1.77;;;;;;;23.22;49.61;101391.09;5045524;28;20079;-55
2023/06/09 09:18:44;;;;;;;2.30;2.10;;;;;;;23.24;49.56;101390.94;5044163;28;20375;-56
2023/06/09 09:21:09;;;;;;;2.17;1.80;;;;;;;23.24;49.77;101390.94;5046046;28;20045;-55
2023/06/09 09:23:35;;;;;;;1.70;1.60;;;;;;;23.24;49.96;101385.50;5044547;28;20434;-56
2023/06/09 09:26:05;;;;;;;2.00;1.80;;;;;;;23.24;49.95;101377.34;5047189;28;20076;-55
2023/06/09 09:28:40;;;;;;;2.20;2.00;;;;;;;23.26;50.09;101383.47;5044868;28;20542;-56
2023/06/09 09:31:08;;;;;;;1.70;1.60;;;;;;;23.25;49.56;101379.06;5046793;28;20497;-55
2023/06/09 09:33:39;;;;;;;2.50;2.30;;;;;;;23.25;49.66;101381.78;5046486;28;20079;-56
2023/06/09 09:36:08;;;;;;;1.98;1.70;;;;;;;23.27;49.58;101374.31;5047924;28;20028;-56
2023/06/09 09:38:34;;;;;;;2.00;1.88;;;;;;;23.28;49.83;101375.16;5049015;28;20036;-55
2023/06/09 09:41:00;;;;;;;2.17;1.98;;;;;;;23.28;50.03;101367.00;5049690;28;20031;-56
2023/06/09 09:43:30;;;;;;;1.90;1.75;;;;;;;23.27;49.79;101368.88;5048254;28;20055;-56
2023/06/09 09:46:00;;;;;;;2.42;2.22;;;;;;;23.28;50.02;101367.00;5048684;28;20056;-56
2023/06/09 09:48:26;;;;;;;2.50;2.13;;;;;;;23.29;49.69;101366.81;5049037;28;20451;-56
2023/06/09 09:50:55;;;;;;;1.88;1.77;;;;;;;23.29;50.08;101369.53;5049172;28;20088;-56
2023/06/09 09:53:22;;;;;;;3.15;2.33;;;;;;;23.29;49.98;101371.41;5052589;28;20071;-55
2023/06/09 09:55:51;;;;;;;3.33;1.80;;;;;;;23.28;49.58;101362.41;5051253;28;20029;-56
2023/06/09 09:58:18;;;;;;;2.78;1.95;;;;;;;23.30;49.75;101364.94;5049013;28;20042;-56
2023/06/09 10:00:46;;;;;;;2.30;1.98;;;;;;;23.31;50.10;101372.94;5048965;28;20471;-55
2023/06/09 10:03:18;;;;;;;2.33;1.80;;;;;;;23.30;49.76;101368.50;5048207;28;20036;-55
2023/06/09 10:05:49;;;;;;;2.78;2.00;;;;;;;23.30;49.71;101368.50;5048456;28;20108;-56
2023/06/09 10:08:22;;;;;;;;;;;;;;;23.41;49.92;101365.47;5049253;28;20494;-55
2023/06/09 10:10:49;;;;;;;1.92;1.77;;;;;;;23.34;49.69;101361.75;5049005;28;19968;-56
2023/06/09 10:13:15;;;;;;;2.33;2.03;;;;;;;23.35;50.10;101362.59;5048163;28;20032;-56
2023/06/09 10:15:43;;;;;;;2.35;2.13;;;;;;;23.34;49.81;101358.16;5049290;28;20112;-56
2023/06/09 10:18:09;;;;;;;2.20;2.00;;;;;;;23.35;50.20;101362.59;5048492;28;20041;-56
2023/06/09 10:20:35;;;;;;;2.63;1.92;;;;;;;23.34;50.05;101353.59;5049091;28;20380;-55
2023/06/09 10:23:01;;;;;;;2.00;1.80;;;;;;;23.35;50.10;101358.00;5052926;28;20033;-56
2023/06/09 10:25:27;;;;;;;2.42;1.83;;;;;;;23.36;49.88;101354.28;5052698;28;20029;-55
2023/06/09 10:27:52;;;;;;;2.35;2.10;;;;;;;23.35;49.85;101349.84;5047955;28;20112;-55
2023/06/09 10:30:19;;;;;;;2.55;1.90;;;;;;;23.36;50.08;101359.72;5054063;28;20379;-56
2023/06/09 10:32:53;;;;;;;2.60;2.00;;;;;;;23.37;50.14;101345.09;5048624;28;20052;-56
2023/06/09 10:35:24;;;;;;;2.95;2.00;;;;;;;23.38;49.79;101346.78;5048931;28;20041;-56
2023/06/09 10:37:50;;;;;;;2.25;2.03;;;;;;;23.38;50.00;101344.06;5047622;28;20037;-55
2023/06/09 10:40:28;;;;;;;2.58;2.10;;;;;;;23.39;50.44;101343.03;5046671;28;20033;-56
2023/06/09 10:43:11;;;;;;;2.15;1.95;;;;;;;23.41;49.98;101338.28;5047851;28;20379;-55
2023/06/09 10:45:54;;;;;;;2.20;2.00;;;;;;;23.42;50.52;101336.44;5048575;28;20403;-55
2023/06/09 10:48:42;;;;;;;2.42;2.00;;;;;;;23.43;50.03;101343.56;5044744;28;20092;-55
2023/06/09 10:51:29;;;;;;;2.90;2.35;;;;;;;23.43;50.35;101328.09;5047484;28;20399;-56
2023/06/09 10:54:22;;;;;;;2.58;2.20;;;;;;;23.45;50.47;101333.34;5045786;28;20476;-55
2023/06/09 10:56:55;;;;;;;2.75;1.98;;;;;;;23.43;50.41;101327.25;5047986;28;20037;-56
2023/06/09 10:59:24;;;;;;;2.60;2.38;;;;;;;23.42;50.16;101331.84;5049825;28;20037;-56
2023/06/09 11:02:18;;;;;;;2.60;2.40;;;;;;;23.46;50.35;101318.75;5046675;28;20032;-56
2023/06/09 11:04:52;;;;;;;2.63;2.28;;;;;;;23.45;50.64;101318.94;5049841;28;20048;-56
2023/06/09 11:07:20;;;;;;;2.72;2.53;;;;;;;23.44;50.72;101318.09;5047109;28;20029;-55
2023/06/09 11:09:51;;;;;;;2.78;2.47;;;;;;;23.44;50.53;101323.53;5047438;28;20132;-55
2023/06/09 11:12:45;;;;;;;3.00;2.70;;;;;;;23.47;50.17;101319.59;5041903;28;20539;-56
2023/06/09 11:15:11;;;;;;;2.78;2.47;;;;;;;23.47;50.30;101316.88;5046907;28;20033;-55
2023/06/09 11:17:39;;;;;;;3.50;2.30;;;;;;;23.47;50.34;101330.47;5047654;28;20030;-56
2023/06/09 11:20:08;;;;;;;2.97;2.65;;;;;;;23.47;50.41;101325.03;5047930;28;20075;-55
2023/06/09 11:22:49;;;;;;;2.88;2.42;;;;;;;23.47;50.47;101316.88;5051504;28;20020;-56
2023/06/09 11:25:15;;;;;;;3.08;2.83;;;;;;;23.48;50.52;101307.72;5049027;28;20077;-55
2023/06/09 11:27:41;;;;;;;2.75;2.45;;;;;;;23.48;50.80;101318.59;5051346;28;20036;-56
2023/06/09 11:30:08;;;;;;;3.28;2.85;;;;;;;23.49;50.49;101317.56;5047541;28;20406;-56